sensor_id;sensor_type;location;lat;lon;timestamp;P1;durP1;ratioP1;P2;durP2;ratioP2
37237;SDS011;23129;49.662;8.448;2022-08-11T00:01:09;8.02;;;2.20;;
37237;SDS011;23129;49.662;8.448;2022-08-11T00:03:45;2.83;;;2.00;;
37237;SDS011;23129;49.662;8.448;2022-08-11T00:06:22;3.70;;;2.00;;
37237;SDS011;23129;49.662;8.448;2022-08-11T00:08:53;2.42;;;1.67;;
37237;SDS011;23129;49.662;8.448;2022-08-11T00:11:32;3.45;;;2.00;;
37237;SDS011;23129;49.662;8.448;2022-08-11T00:14:04;2.45;;;2.20;;
37237;SDS011;23129;49.662;8.448;2022-08-11T00:16:43;4.18;;;2.33;;
37237;SDS011;23129;49.662;8.448;2022-08-11T00:19:23;5.88;;;1.83;;
37237;SDS011;23129;49.662;8.448;2022-08-11T00:22:18;5.97;;;2.10;;
37237;SDS011;23129;49.662;8.448;2022-08-11T00:24:49;2.92;;;1.85;;
37237;SDS011;23129;49.662;8.448;2022-08-11T00:27:33;8.85;;;1.88;;
37237;SDS011;23129;49.662;8.448;2022-08-11T00:30:06;3.20;;;2.10;;
37237;SDS011;23129;49.662;8.448;2022-08-11T00:32:40;8.55;;;1.85;;
37237;SDS011;23129;49.662;8.448;2022-08-11T00:35:11;3.60;;;1.77;;
37237;SDS011;23129;49.662;8.448;2022-08-11T00:38:03;2.53;;;1.80;;
37237;SDS011;23129;49.662;8.448;2022-08-11T00:40:36;12.15;;;2.60;;
37237;SDS011;23129;49.662;8.448;2022-08-11T00:43:14;7.35;;;1.95;;
37237;SDS011;23129;49.662;8.448;2022-08-11T00:45:59;1.92;;;1.83;;
37237;SDS011;23129;49.662;8.448;2022-08-11T00:48:39;4.80;;;1.83;;
37237;SDS011;23129;49.662;8.448;2022-08-11T00:51:25;2.85;;;2.08;;
37237;SDS011;23129;49.662;8.448;2022-08-11T01:01:20;6.38;;;1.80;;
37237;SDS011;23129;49.662;8.448;2022-08-11T01:04:15;4.50;;;2.25;;
37237;SDS011;23129;49.662;8.448;2022-08-11T01:07:30;2.37;;;2.10;;
37237;SDS011;23129;49.662;8.448;2022-08-11T01:14:27;1.95;;;1.83;;
37237;SDS011;23129;49.662;8.448;2022-08-11T01:21:07;2.22;;;1.90;;
37237;SDS011;23129;49.662;8.448;2022-08-11T01:34:52;2.15;;;1.73;;
37237;SDS011;23129;49.662;8.448;2022-08-11T01:38:01;5.53;;;2.23;;
37237;SDS011;23129;49.662;8.448;2022-08-11T01:41:21;2.88;;;2.38;;
37237;SDS011;23129;49.662;8.448;2022-08-11T01:45:07;2.78;;;2.15;;
37237;SDS011;23129;49.662;8.448;2022-08-11T01:47:54;2.75;;;2.53;;
37237;SDS011;23129;49.662;8.448;2022-08-11T01:50:36;4.93;;;2.00;;
37237;SDS011;23129;49.662;8.448;2022-08-11T01:53:23;3.80;;;2.60;;
37237;SDS011;23129;49.662;8.448;2022-08-11T01:56:04;2.92;;;2.45;;
37237;SDS011;23129;49.662;8.448;2022-08-11T01:58:53;7.07;;;2.55;;
37237;SDS011;23129;49.662;8.448;2022-08-11T02:01:37;3.70;;;2.20;;
37237;SDS011;23129;49.662;8.448;2022-08-11T02:04:28;2.13;;;1.92;;
37237;SDS011;23129;49.662;8.448;2022-08-11T02:09:53;3.40;;;2.63;;
37237;SDS011;23129;49.662;8.448;2022-08-11T02:13:05;4.45;;;2.38;;
37237;SDS011;23129;49.662;8.448;2022-08-11T02:15:42;9.90;;;2.45;;
37237;SDS011;23129;49.662;8.448;2022-08-11T02:18:19;2.53;;;2.33;;
37237;SDS011;23129;49.662;8.448;2022-08-11T02:21:15;4.18;;;2.42;;
37237;SDS011;23129;49.662;8.448;2022-08-11T02:24:16;2.13;;;2.03;;
37237;SDS011;23129;49.662;8.448;2022-08-11T02:26:54;3.42;;;2.47;;
37237;SDS011;23129;49.662;8.448;2022-08-11T02:29:43;3.25;;;2.53;;
37237;SDS011;23129;49.662;8.448;2022-08-11T02:32:25;6.00;;;2.30;;
37237;SDS011;23129;49.662;8.448;2022-08-11T02:35:17;2.65;;;2.45;;
37237;SDS011;23129;49.662;8.448;2022-08-11T02:37:53;5.80;;;2.50;;
37237;SDS011;23129;49.662;8.448;2022-08-11T02:40:44;9.38;;;2.72;;
37237;SDS011;23129;49.662;8.448;2022-08-11T02:43:26;3.20;;;2.22;;
37237;SDS011;23129;49.662;8.448;2022-08-11T02:46:20;6.63;;;2.63;;
37237;SDS011;23129;49.662;8.448;2022-08-11T02:48:58;2.10;;;2.00;;
37237;SDS011;23129;49.662;8.448;2022-08-11T02:52:01;10.27;;;2.20;;
37237;SDS011;23129;49.662;8.448;2022-08-11T02:54:36;2.58;;;2.20;;
37237;SDS011;23129;49.662;8.448;2022-08-11T02:57:15;2.65;;;2.45;;
37237;SDS011;23129;49.662;8.448;2022-08-11T03:00:03;2.70;;;2.50;;
37237;SDS011;23129;49.662;8.448;2022-08-11T03:02:41;7.13;;;2.30;;
37237;SDS011;23129;49.662;8.448;2022-08-11T03:05:28;4.75;;;2.58;;
37237;SDS011;23129;49.662;8.448;2022-08-11T03:08:17;15.60;;;3.22;;
37237;SDS011;23129;49.662;8.448;2022-08-11T03:11:04;10.73;;;3.22;;
37237;SDS011;23129;49.662;8.448;2022-08-11T03:14:09;6.53;;;3.50;;
37237;SDS011;23129;49.662;8.448;2022-08-11T03:17:05;12.32;;;4.13;;
37237;SDS011;23129;49.662;8.448;2022-08-11T03:19:50;7.80;;;2.72;;
37237;SDS011;23129;49.662;8.448;2022-08-11T03:22:32;16.83;;;2.78;;
37237;SDS011;23129;49.662;8.448;2022-08-11T03:25:07;11.88;;;3.05;;
37237;SDS011;23129;49.662;8.448;2022-08-11T03:27:47;16.60;;;3.72;;
37237;SDS011;23129;49.662;8.448;2022-08-11T03:30:32;4.55;;;2.67;;
37237;SDS011;23129;49.662;8.448;2022-08-11T03:33:14;2.30;;;2.15;;
37237;SDS011;23129;49.662;8.448;2022-08-11T03:36:13;2.40;;;2.20;;
37237;SDS011;23129;49.662;8.448;2022-08-11T03:39:19;3.30;;;2.50;;
37237;SDS011;23129;49.662;8.448;2022-08-11T03:42:00;5.78;;;2.53;;
37237;SDS011;23129;49.662;8.448;2022-08-11T03:44:42;10.43;;;2.83;;
37237;SDS011;23129;49.662;8.448;2022-08-11T03:50:31;3.50;;;2.97;;
37237;SDS011;23129;49.662;8.448;2022-08-11T03:53:24;3.00;;;2.70;;
37237;SDS011;23129;49.662;8.448;2022-08-11T04:12:37;9.00;;;2.60;;
37237;SDS011;23129;49.662;8.448;2022-08-11T04:18:54;6.15;;;2.90;;
37237;SDS011;23129;49.662;8.448;2022-08-11T04:25:42;7.38;;;2.50;;
37237;SDS011;23129;49.662;8.448;2022-08-11T04:28:56;6.07;;;2.60;;
37237;SDS011;23129;49.662;8.448;2022-08-11T04:31:38;6.47;;;2.60;;
37237;SDS011;23129;49.662;8.448;2022-08-11T04:34:39;3.92;;;2.22;;
37237;SDS011;23129;49.662;8.448;2022-08-11T04:37:31;23.90;;;3.20;;
37237;SDS011;23129;49.662;8.448;2022-08-11T04:47:09;5.28;;;2.95;;
37237;SDS011;23129;49.662;8.448;2022-08-11T04:50:36;3.10;;;2.83;;
37237;SDS011;23129;49.662;8.448;2022-08-11T04:53:45;3.90;;;2.85;;
37237;SDS011;23129;49.662;8.448;2022-08-11T04:56:44;4.15;;;2.55;;
37237;SDS011;23129;49.662;8.448;2022-08-11T05:03:02;4.25;;;2.72;;
37237;SDS011;23129;49.662;8.448;2022-08-11T05:06:31;7.35;;;2.75;;
37237;SDS011;23129;49.662;8.448;2022-08-11T05:09:55;8.50;;;2.95;;
37237;SDS011;23129;49.662;8.448;2022-08-11T05:12:41;11.60;;;2.85;;
37237;SDS011;23129;49.662;8.448;2022-08-11T05:15:17;8.88;;;3.08;;
37237;SDS011;23129;49.662;8.448;2022-08-11T05:18:18;3.58;;;2.65;;
37237;SDS011;23129;49.662;8.448;2022-08-11T05:21:08;7.13;;;2.53;;
37237;SDS011;23129;49.662;8.448;2022-08-11T05:24:12;7.97;;;3.53;;
37237;SDS011;23129;49.662;8.448;2022-08-11T05:27:06;8.45;;;2.65;;
37237;SDS011;23129;49.662;8.448;2022-08-11T05:29:55;8.10;;;2.92;;
37237;SDS011;23129;49.662;8.448;2022-08-11T05:32:52;9.90;;;3.50;;
37237;SDS011;23129;49.662;8.448;2022-08-11T05:35:46;7.35;;;3.75;;
37237;SDS011;23129;49.662;8.448;2022-08-11T05:38:29;4.10;;;2.95;;
37237;SDS011;23129;49.662;8.448;2022-08-11T05:41:20;8.70;;;3.17;;
37237;SDS011;23129;49.662;8.448;2022-08-11T05:44:15;11.95;;;3.35;;
37237;SDS011;23129;49.662;8.448;2022-08-11T05:47:05;3.05;;;2.67;;
37237;SDS011;23129;49.662;8.448;2022-08-11T05:49:52;7.72;;;3.22;;
37237;SDS011;23129;49.662;8.448;2022-08-11T05:52:44;5.07;;;2.88;;
37237;SDS011;23129;49.662;8.448;2022-08-11T05:55:38;5.05;;;2.88;;
37237;SDS011;23129;49.662;8.448;2022-08-11T05:58:34;11.43;;;3.38;;
37237;SDS011;23129;49.662;8.448;2022-08-11T06:01:08;12.65;;;3.75;;
37237;SDS011;23129;49.662;8.448;2022-08-11T06:03:41;4.30;;;3.13;;
37237;SDS011;23129;49.662;8.448;2022-08-11T06:06:29;6.47;;;3.22;;
37237;SDS011;23129;49.662;8.448;2022-08-11T06:08:58;8.70;;;2.95;;
37237;SDS011;23129;49.662;8.448;2022-08-11T06:11:28;10.30;;;3.85;;
37237;SDS011;23129;49.662;8.448;2022-08-11T06:14:11;3.67;;;3.00;;
37237;SDS011;23129;49.662;8.448;2022-08-11T06:16:41;4.57;;;2.95;;
37237;SDS011;23129;49.662;8.448;2022-08-11T06:19:15;6.28;;;3.00;;
37237;SDS011;23129;49.662;8.448;2022-08-11T06:21:48;4.50;;;2.80;;
37237;SDS011;23129;49.662;8.448;2022-08-11T06:24:18;18.40;;;3.45;;
37237;SDS011;23129;49.662;8.448;2022-08-11T06:26:49;11.00;;;3.15;;
37237;SDS011;23129;49.662;8.448;2022-08-11T06:29:45;6.20;;;3.45;;
37237;SDS011;23129;49.662;8.448;2022-08-11T06:32:22;4.03;;;3.00;;
37237;SDS011;23129;49.662;8.448;2022-08-11T06:35:05;10.90;;;2.97;;
37237;SDS011;23129;49.662;8.448;2022-08-11T06:37:43;6.00;;;4.07;;
37237;SDS011;23129;49.662;8.448;2022-08-11T06:40:32;3.60;;;2.80;;
37237;SDS011;23129;49.662;8.448;2022-08-11T06:43:10;16.42;;;2.90;;
37237;SDS011;23129;49.662;8.448;2022-08-11T06:45:52;5.07;;;2.70;;
37237;SDS011;23129;49.662;8.448;2022-08-11T06:48:29;4.68;;;2.35;;
37237;SDS011;23129;49.662;8.448;2022-08-11T06:51:01;4.22;;;2.65;;
37237;SDS011;23129;49.662;8.448;2022-08-11T06:53:41;3.75;;;2.65;;
37237;SDS011;23129;49.662;8.448;2022-08-11T06:56:31;4.93;;;2.30;;
37237;SDS011;23129;49.662;8.448;2022-08-11T06:59:40;9.73;;;2.25;;
37237;SDS011;23129;49.662;8.448;2022-08-11T07:02:29;2.45;;;1.85;;
37237;SDS011;23129;49.662;8.448;2022-08-11T07:05:02;9.60;;;2.85;;
37237;SDS011;23129;49.662;8.448;2022-08-11T07:11:21;2.72;;;2.38;;
37237;SDS011;23129;49.662;8.448;2022-08-11T07:14:40;12.23;;;2.55;;
37237;SDS011;23129;49.662;8.448;2022-08-11T07:17:36;2.75;;;2.13;;
37237;SDS011;23129;49.662;8.448;2022-08-11T07:20:15;4.70;;;2.42;;
37237;SDS011;23129;49.662;8.448;2022-08-11T07:23:02;4.03;;;2.17;;
37237;SDS011;23129;49.662;8.448;2022-08-11T07:25:52;3.38;;;1.90;;
37237;SDS011;23129;49.662;8.448;2022-08-11T07:28:41;3.17;;;1.90;;
37237;SDS011;23129;49.662;8.448;2022-08-11T07:31:30;2.67;;;1.77;;
37237;SDS011;23129;49.662;8.448;2022-08-11T07:34:16;2.55;;;1.80;;
37237;SDS011;23129;49.662;8.448;2022-08-11T07:36:54;5.38;;;2.90;;
37237;SDS011;23129;49.662;8.448;2022-08-11T07:39:26;1.83;;;1.73;;
37237;SDS011;23129;49.662;8.448;2022-08-11T07:41:58;3.65;;;1.95;;
37237;SDS011;23129;49.662;8.448;2022-08-11T07:44:33;11.50;;;1.60;;
37237;SDS011;23129;49.662;8.448;2022-08-11T07:47:24;3.00;;;1.33;;
37237;SDS011;23129;49.662;8.448;2022-08-11T07:50:21;3.05;;;1.80;;
37237;SDS011;23129;49.662;8.448;2022-08-11T07:53:08;2.38;;;1.45;;
37237;SDS011;23129;49.662;8.448;2022-08-11T07:55:38;4.18;;;1.50;;
37237;SDS011;23129;49.662;8.448;2022-08-11T07:58:16;5.15;;;1.55;;
37237;SDS011;23129;49.662;8.448;2022-08-11T08:01:18;2.75;;;1.45;;
37237;SDS011;23129;49.662;8.448;2022-08-11T08:04:07;5.15;;;1.90;;
37237;SDS011;23129;49.662;8.448;2022-08-11T08:06:58;1.83;;;1.60;;
37237;SDS011;23129;49.662;8.448;2022-08-11T08:09:47;8.75;;;1.77;;
37237;SDS011;23129;49.662;8.448;2022-08-11T08:12:39;2.92;;;1.67;;
37237;SDS011;23129;49.662;8.448;2022-08-11T08:15:25;5.70;;;1.50;;
37237;SDS011;23129;49.662;8.448;2022-08-11T08:18:13;3.22;;;1.88;;
37237;SDS011;23129;49.662;8.448;2022-08-11T08:20:53;4.60;;;1.83;;
37237;SDS011;23129;49.662;8.448;2022-08-11T08:26:11;11.35;;;1.67;;
37237;SDS011;23129;49.662;8.448;2022-08-11T08:29:01;4.43;;;1.65;;
37237;SDS011;23129;49.662;8.448;2022-08-11T08:31:51;3.83;;;1.15;;
37237;SDS011;23129;49.662;8.448;2022-08-11T08:34:22;5.88;;;1.48;;
37237;SDS011;23129;49.662;8.448;2022-08-11T08:36:52;7.68;;;1.67;;
37237;SDS011;23129;49.662;8.448;2022-08-11T08:39:22;6.32;;;1.80;;
37237;SDS011;23129;49.662;8.448;2022-08-11T08:41:52;6.60;;;1.77;;
37237;SDS011;23129;49.662;8.448;2022-08-11T08:44:25;6.70;;;2.05;;
37237;SDS011;23129;49.662;8.448;2022-08-11T08:47:06;7.88;;;1.42;;
37237;SDS011;23129;49.662;8.448;2022-08-11T08:50:01;5.28;;;1.58;;
37237;SDS011;23129;49.662;8.448;2022-08-11T08:52:34;7.55;;;1.55;;
37237;SDS011;23129;49.662;8.448;2022-08-11T08:55:16;2.55;;;1.52;;
37237;SDS011;23129;49.662;8.448;2022-08-11T08:57:47;4.60;;;1.20;;
37237;SDS011;23129;49.662;8.448;2022-08-11T09:00:19;1.65;;;1.52;;
37237;SDS011;23129;49.662;8.448;2022-08-11T09:02:49;5.05;;;1.67;;
37237;SDS011;23129;49.662;8.448;2022-08-11T09:05:19;3.08;;;1.33;;
37237;SDS011;23129;49.662;8.448;2022-08-11T09:07:49;7.88;;;1.23;;
37237;SDS011;23129;49.662;8.448;2022-08-11T09:10:24;3.72;;;1.40;;
37237;SDS011;23129;49.662;8.448;2022-08-11T09:12:56;4.35;;;1.20;;
37237;SDS011;23129;49.662;8.448;2022-08-11T09:15:26;4.57;;;1.33;;
37237;SDS011;23129;49.662;8.448;2022-08-11T09:17:56;4.75;;;1.85;;
37237;SDS011;23129;49.662;8.448;2022-08-11T09:20:32;3.35;;;1.23;;
37237;SDS011;23129;49.662;8.448;2022-08-11T09:23:04;1.30;;;1.20;;
37237;SDS011;23129;49.662;8.448;2022-08-11T09:26:20;2.78;;;1.27;;
37237;SDS011;23129;49.662;8.448;2022-08-11T09:29:07;1.73;;;1.40;;
37237;SDS011;23129;49.662;8.448;2022-08-11T09:31:37;1.25;;;1.13;;
37237;SDS011;23129;49.662;8.448;2022-08-11T09:34:07;4.88;;;1.30;;
37237;SDS011;23129;49.662;8.448;2022-08-11T09:36:37;9.00;;;1.38;;
37237;SDS011;23129;49.662;8.448;2022-08-11T09:39:25;1.27;;;1.20;;
37237;SDS011;23129;49.662;8.448;2022-08-11T09:42:15;7.47;;;1.75;;
37237;SDS011;23129;49.662;8.448;2022-08-11T09:44:49;1.83;;;1.05;;
37237;SDS011;23129;49.662;8.448;2022-08-11T09:47:20;1.55;;;1.27;;
37237;SDS011;23129;49.662;8.448;2022-08-11T09:49:52;4.93;;;2.10;;
37237;SDS011;23129;49.662;8.448;2022-08-11T09:52:28;3.08;;;1.13;;
37237;SDS011;23129;49.662;8.448;2022-08-11T09:55:01;11.57;;;1.60;;
37237;SDS011;23129;49.662;8.448;2022-08-11T09:57:39;1.58;;;1.40;;
37237;SDS011;23129;49.662;8.448;2022-08-11T10:00:30;2.65;;;1.10;;
37237;SDS011;23129;49.662;8.448;2022-08-11T10:03:05;1.92;;;1.00;;
37237;SDS011;23129;49.662;8.448;2022-08-11T10:05:38;5.10;;;1.20;;
37237;SDS011;23129;49.662;8.448;2022-08-11T10:11:04;4.50;;;1.33;;
37237;SDS011;23129;49.662;8.448;2022-08-11T10:13:40;3.95;;;1.45;;
37237;SDS011;23129;49.662;8.448;2022-08-11T10:16:50;1.33;;;1.00;;
37237;SDS011;23129;49.662;8.448;2022-08-11T10:19:19;2.97;;;1.30;;
37237;SDS011;23129;49.662;8.448;2022-08-11T10:21:49;1.52;;;1.15;;
37237;SDS011;23129;49.662;8.448;2022-08-11T10:24:34;5.07;;;1.33;;
37237;SDS011;23129;49.662;8.448;2022-08-11T10:27:21;8.07;;;1.20;;
37237;SDS011;23129;49.662;8.448;2022-08-11T10:30:12;5.38;;;1.55;;
37237;SDS011;23129;49.662;8.448;2022-08-11T10:32:58;7.20;;;1.20;;
37237;SDS011;23129;49.662;8.448;2022-08-11T10:36:04;3.78;;;1.00;;
37237;SDS011;23129;49.662;8.448;2022-08-11T10:38:42;5.75;;;1.02;;
37237;SDS011;23129;49.662;8.448;2022-08-11T10:41:15;1.25;;;1.15;;
37237;SDS011;23129;49.662;8.448;2022-08-11T10:44:22;3.78;;;0.95;;
37237;SDS011;23129;49.662;8.448;2022-08-11T10:46:52;2.03;;;1.30;;
37237;SDS011;23129;49.662;8.448;2022-08-11T10:49:38;2.15;;;1.42;;
37237;SDS011;23129;49.662;8.448;2022-08-11T10:52:07;7.63;;;1.73;;
37237;SDS011;23129;49.662;8.448;2022-08-11T10:54:54;1.55;;;1.25;;
37237;SDS011;23129;49.662;8.448;2022-08-11T10:57:41;2.67;;;1.30;;
37237;SDS011;23129;49.662;8.448;2022-08-11T11:00:30;1.48;;;1.27;;
37237;SDS011;23129;49.662;8.448;2022-08-11T11:03:01;2.85;;;1.75;;
37237;SDS011;23129;49.662;8.448;2022-08-11T11:05:49;5.13;;;2.00;;
37237;SDS011;23129;49.662;8.448;2022-08-11T11:08:41;3.47;;;1.65;;
37237;SDS011;23129;49.662;8.448;2022-08-11T11:11:29;1.40;;;1.30;;
37237;SDS011;23129;49.662;8.448;2022-08-11T11:14:22;3.72;;;1.30;;
37237;SDS011;23129;49.662;8.448;2022-08-11T11:17:24;5.30;;;1.40;;
37237;SDS011;23129;49.662;8.448;2022-08-11T11:20:18;2.28;;;1.60;;
37237;SDS011;23129;49.662;8.448;2022-08-11T11:23:05;2.25;;;1.60;;
37237;SDS011;23129;49.662;8.448;2022-08-11T11:28:48;3.22;;;1.90;;
37237;SDS011;23129;49.662;8.448;2022-08-11T11:31:49;4.65;;;1.58;;
37237;SDS011;23129;49.662;8.448;2022-08-11T11:34:37;1.92;;;1.30;;
37237;SDS011;23129;49.662;8.448;2022-08-11T11:37:26;2.10;;;1.52;;
37237;SDS011;23129;49.662;8.448;2022-08-11T11:40:00;3.22;;;1.60;;
37237;SDS011;23129;49.662;8.448;2022-08-11T11:42:29;5.40;;;1.65;;
37237;SDS011;23129;49.662;8.448;2022-08-11T11:44:58;1.52;;;1.42;;
37237;SDS011;23129;49.662;8.448;2022-08-11T11:47:27;2.08;;;1.52;;
37237;SDS011;23129;49.662;8.448;2022-08-11T11:49:56;7.90;;;1.70;;
37237;SDS011;23129;49.662;8.448;2022-08-11T11:52:27;6.32;;;1.50;;
37237;SDS011;23129;49.662;8.448;2022-08-11T11:54:56;1.65;;;1.38;;
37237;SDS011;23129;49.662;8.448;2022-08-11T11:57:26;2.40;;;1.60;;
37237;SDS011;23129;49.662;8.448;2022-08-11T12:00:28;9.73;;;1.52;;
37237;SDS011;23129;49.662;8.448;2022-08-11T12:03:14;1.73;;;1.63;;
37237;SDS011;23129;49.662;8.448;2022-08-11T12:05:44;1.35;;;1.25;;
37237;SDS011;23129;49.662;8.448;2022-08-11T12:08:14;6.78;;;1.50;;
37237;SDS011;23129;49.662;8.448;2022-08-11T12:10:50;7.97;;;1.60;;
37237;SDS011;23129;49.662;8.448;2022-08-11T12:13:41;7.03;;;1.52;;
37237;SDS011;23129;49.662;8.448;2022-08-11T12:16:13;4.40;;;1.40;;
37237;SDS011;23129;49.662;8.448;2022-08-11T12:19:02;1.88;;;1.60;;
37237;SDS011;23129;49.662;8.448;2022-08-11T12:21:33;1.83;;;1.73;;
37237;SDS011;23129;49.662;8.448;2022-08-11T12:24:04;5.20;;;1.58;;
37237;SDS011;23129;49.662;8.448;2022-08-11T12:26:55;2.42;;;1.60;;
37237;SDS011;23129;49.662;8.448;2022-08-11T12:29:44;6.47;;;1.35;;
37237;SDS011;23129;49.662;8.448;2022-08-11T12:32:21;1.88;;;1.48;;
37237;SDS011;23129;49.662;8.448;2022-08-11T12:34:52;4.03;;;1.50;;
37237;SDS011;23129;49.662;8.448;2022-08-11T12:37:23;1.90;;;1.70;;
37237;SDS011;23129;49.662;8.448;2022-08-11T12:43:09;3.60;;;1.38;;
37237;SDS011;23129;49.662;8.448;2022-08-11T12:46:05;1.52;;;1.42;;
37237;SDS011;23129;49.662;8.448;2022-08-11T12:48:40;3.80;;;1.33;;
37237;SDS011;23129;49.662;8.448;2022-08-11T12:51:32;4.22;;;1.40;;
37237;SDS011;23129;49.662;8.448;2022-08-11T12:54:42;4.90;;;2.00;;
37237;SDS011;23129;49.662;8.448;2022-08-11T12:57:26;5.68;;;2.20;;
37237;SDS011;23129;49.662;8.448;2022-08-11T13:00:20;5.90;;;1.70;;
37237;SDS011;23129;49.662;8.448;2022-08-11T13:03:08;2.47;;;1.52;;
37237;SDS011;23129;49.662;8.448;2022-08-11T13:05:56;2.65;;;2.10;;
37237;SDS011;23129;49.662;8.448;2022-08-11T13:08:28;2.72;;;1.63;;
37237;SDS011;23129;49.662;8.448;2022-08-11T13:11:00;2.13;;;1.40;;
37237;SDS011;23129;49.662;8.448;2022-08-11T13:13:49;7.10;;;1.83;;
37237;SDS011;23129;49.662;8.448;2022-08-11T13:16:24;3.15;;;1.80;;
37237;SDS011;23129;49.662;8.448;2022-08-11T13:18:56;1.80;;;1.40;;
37237;SDS011;23129;49.662;8.448;2022-08-11T13:21:27;1.60;;;1.50;;
37237;SDS011;23129;49.662;8.448;2022-08-11T13:23:56;7.22;;;1.50;;
37237;SDS011;23129;49.662;8.448;2022-08-11T13:26:33;4.00;;;1.60;;
37237;SDS011;23129;49.662;8.448;2022-08-11T13:29:18;2.17;;;1.20;;
37237;SDS011;23129;49.662;8.448;2022-08-11T13:31:49;4.55;;;1.70;;
37237;SDS011;23129;49.662;8.448;2022-08-11T13:34:20;10.45;;;1.52;;
37237;SDS011;23129;49.662;8.448;2022-08-11T13:36:53;4.68;;;1.20;;
37237;SDS011;23129;49.662;8.448;2022-08-11T13:39:25;2.80;;;1.25;;
37237;SDS011;23129;49.662;8.448;2022-08-11T13:41:57;3.15;;;1.40;;
37237;SDS011;23129;49.662;8.448;2022-08-11T13:44:30;1.80;;;1.40;;
37237;SDS011;23129;49.662;8.448;2022-08-11T13:47:03;1.48;;;1.30;;
37237;SDS011;23129;49.662;8.448;2022-08-11T13:49:34;3.17;;;1.40;;
37237;SDS011;23129;49.662;8.448;2022-08-11T13:52:07;5.63;;;1.40;;
37237;SDS011;23129;49.662;8.448;2022-08-11T13:54:40;1.58;;;1.10;;
37237;SDS011;23129;49.662;8.448;2022-08-11T13:57:10;2.92;;;1.27;;
37237;SDS011;23129;49.662;8.448;2022-08-11T14:00:03;3.28;;;1.40;;
37237;SDS011;23129;49.662;8.448;2022-08-11T14:02:53;7.22;;;1.40;;
37237;SDS011;23129;49.662;8.448;2022-08-11T14:05:24;1.60;;;1.50;;
37237;SDS011;23129;49.662;8.448;2022-08-11T14:07:58;2.83;;;0.93;;
37237;SDS011;23129;49.662;8.448;2022-08-11T14:10:31;1.95;;;1.27;;
37237;SDS011;23129;49.662;8.448;2022-08-11T14:13:02;6.32;;;1.60;;
37237;SDS011;23129;49.662;8.448;2022-08-11T14:18:44;1.95;;;1.30;;
37237;SDS011;23129;49.662;8.448;2022-08-11T14:21:16;5.30;;;1.20;;
37237;SDS011;23129;49.662;8.448;2022-08-11T14:24:05;3.47;;;1.40;;
37237;SDS011;23129;49.662;8.448;2022-08-11T14:26:39;3.83;;;1.58;;
37237;SDS011;23129;49.662;8.448;2022-08-11T14:29:10;2.53;;;1.45;;
37237;SDS011;23129;49.662;8.448;2022-08-11T14:31:44;1.65;;;1.50;;
37237;SDS011;23129;49.662;8.448;2022-08-11T14:34:16;1.40;;;1.30;;
37237;SDS011;23129;49.662;8.448;2022-08-11T14:36:48;1.88;;;1.40;;
37237;SDS011;23129;49.662;8.448;2022-08-11T14:39:20;1.50;;;0.95;;
37237;SDS011;23129;49.662;8.448;2022-08-11T14:41:51;4.63;;;1.30;;
37237;SDS011;23129;49.662;8.448;2022-08-11T14:44:41;2.28;;;2.10;;
37237;SDS011;23129;49.662;8.448;2022-08-11T14:47:32;1.20;;;1.13;;
37237;SDS011;23129;49.662;8.448;2022-08-11T14:50:03;3.75;;;1.23;;
37237;SDS011;23129;49.662;8.448;2022-08-11T14:52:39;3.47;;;1.02;;
37237;SDS011;23129;49.662;8.448;2022-08-11T14:55:15;7.95;;;1.27;;
37237;SDS011;23129;49.662;8.448;2022-08-11T14:58:03;6.50;;;1.50;;
37237;SDS011;23129;49.662;8.448;2022-08-11T15:00:35;1.67;;;1.50;;
37237;SDS011;23129;49.662;8.448;2022-08-11T15:03:07;4.32;;;1.35;;
37237;SDS011;23129;49.662;8.448;2022-08-11T15:05:40;6.78;;;1.48;;
37237;SDS011;23129;49.662;8.448;2022-08-11T15:08:24;6.28;;;1.15;;
37237;SDS011;23129;49.662;8.448;2022-08-11T15:11:16;1.58;;;1.27;;
37237;SDS011;23129;49.662;8.448;2022-08-11T15:14:05;3.10;;;1.10;;
37237;SDS011;23129;49.662;8.448;2022-08-11T15:16:36;1.88;;;1.20;;
37237;SDS011;23129;49.662;8.448;2022-08-11T15:19:28;5.65;;;1.35;;
37237;SDS011;23129;49.662;8.448;2022-08-11T15:22:06;2.80;;;1.00;;
37237;SDS011;23129;49.662;8.448;2022-08-11T15:24:55;3.72;;;1.10;;
37237;SDS011;23129;49.662;8.448;2022-08-11T15:27:25;3.55;;;1.27;;
37237;SDS011;23129;49.662;8.448;2022-08-11T15:30:14;1.67;;;1.20;;
37237;SDS011;23129;49.662;8.448;2022-08-11T15:33:04;2.92;;;1.13;;
37237;SDS011;23129;49.662;8.448;2022-08-11T15:35:56;0.80;;;0.80;;
37237;SDS011;23129;49.662;8.448;2022-08-11T15:38:46;2.80;;;0.90;;
37237;SDS011;23129;49.662;8.448;2022-08-11T15:41:23;2.45;;;1.23;;
37237;SDS011;23129;49.662;8.448;2022-08-11T15:44:25;1.55;;;1.13;;
37237;SDS011;23129;49.662;8.448;2022-08-11T15:47:33;4.35;;;1.52;;
37237;SDS011;23129;49.662;8.448;2022-08-11T15:50:08;5.63;;;1.77;;
37237;SDS011;23129;49.662;8.448;2022-08-11T15:52:45;2.25;;;1.00;;
37237;SDS011;23129;49.662;8.448;2022-08-11T15:55:20;6.90;;;1.38;;
37237;SDS011;23129;49.662;8.448;2022-08-11T15:57:51;5.97;;;1.10;;
37237;SDS011;23129;49.662;8.448;2022-08-11T16:00:39;9.13;;;1.50;;
37237;SDS011;23129;49.662;8.448;2022-08-11T16:03:38;1.35;;;1.20;;
37237;SDS011;23129;49.662;8.448;2022-08-11T16:06:35;9.40;;;1.40;;
37237;SDS011;23129;49.662;8.448;2022-08-11T16:09:19;5.82;;;1.30;;
37237;SDS011;23129;49.662;8.448;2022-08-11T16:12:14;4.97;;;1.38;;
37237;SDS011;23129;49.662;8.448;2022-08-11T16:14:49;2.50;;;1.00;;
37237;SDS011;23129;49.662;8.448;2022-08-11T16:17:39;0.82;;;0.82;;
37237;SDS011;23129;49.662;8.448;2022-08-11T16:20:12;2.42;;;1.20;;
37237;SDS011;23129;49.662;8.448;2022-08-11T16:22:44;5.40;;;1.10;;
37237;SDS011;23129;49.662;8.448;2022-08-11T16:25:29;8.20;;;1.30;;
37237;SDS011;23129;49.662;8.448;2022-08-11T16:28:21;1.75;;;1.60;;
37237;SDS011;23129;49.662;8.448;2022-08-11T16:30:51;1.15;;;1.08;;
37237;SDS011;23129;49.662;8.448;2022-08-11T16:33:23;0.95;;;0.88;;
37237;SDS011;23129;49.662;8.448;2022-08-11T16:36:12;5.57;;;1.20;;
37237;SDS011;23129;49.662;8.448;2022-08-11T16:38:59;4.57;;;0.90;;
37237;SDS011;23129;49.662;8.448;2022-08-11T16:41:32;2.17;;;1.00;;
37237;SDS011;23129;49.662;8.448;2022-08-11T16:44:21;6.63;;;1.00;;
37237;SDS011;23129;49.662;8.448;2022-08-11T16:47:10;1.83;;;1.00;;
37237;SDS011;23129;49.662;8.448;2022-08-11T16:50:03;1.60;;;0.90;;
37237;SDS011;23129;49.662;8.448;2022-08-11T16:52:34;1.67;;;1.20;;
37237;SDS011;23129;49.662;8.448;2022-08-11T16:55:02;1.05;;;0.98;;
37237;SDS011;23129;49.662;8.448;2022-08-11T16:57:33;4.18;;;1.45;;
37237;SDS011;23129;49.662;8.448;2022-08-11T17:00:21;7.18;;;1.33;;
37237;SDS011;23129;49.662;8.448;2022-08-11T17:02:51;7.05;;;1.17;;
37237;SDS011;23129;49.662;8.448;2022-08-11T17:05:53;3.78;;;1.35;;
37237;SDS011;23129;49.662;8.448;2022-08-11T17:08:39;4.47;;;1.27;;
37237;SDS011;23129;49.662;8.448;2022-08-11T17:11:31;9.55;;;1.45;;
37237;SDS011;23129;49.662;8.448;2022-08-11T17:14:27;5.65;;;1.58;;
37237;SDS011;23129;49.662;8.448;2022-08-11T17:17:04;13.05;;;2.53;;
37237;SDS011;23129;49.662;8.448;2022-08-11T17:19:40;15.55;;;1.73;;
37237;SDS011;23129;49.662;8.448;2022-08-11T17:22:35;2.17;;;1.08;;
37237;SDS011;23129;49.662;8.448;2022-08-11T17:25:24;6.38;;;1.50;;
37237;SDS011;23129;49.662;8.448;2022-08-11T17:27:54;2.92;;;1.25;;
37237;SDS011;23129;49.662;8.448;2022-08-11T17:30:27;4.43;;;1.30;;
37237;SDS011;23129;49.662;8.448;2022-08-11T17:33:10;2.38;;;0.68;;
37237;SDS011;23129;49.662;8.448;2022-08-11T17:35:58;3.45;;;1.02;;
37237;SDS011;23129;49.662;8.448;2022-08-11T17:38:28;1.95;;;1.13;;
37237;SDS011;23129;49.662;8.448;2022-08-11T17:41:00;1.08;;;1.00;;
37237;SDS011;23129;49.662;8.448;2022-08-11T17:43:49;1.75;;;1.02;;
37237;SDS011;23129;49.662;8.448;2022-08-11T17:46:39;3.05;;;0.95;;